Time;durP1;ratioP1;P1;durP2;ratioP2;P2;SDS_P1;SDS_P2;PMS_P1;PMS_P2;Temp;Humidity;BMP_temperature;BMP_pressure;BME280_temperature;BME280_humidity;BME280_pressure;Samples;Min_cycle;Max_cycle;Signal;HPM_P1;HPM_P2
2022/01/13 00:01:04;;;;;;;70.63;40.50;;;;;;;2.33;64.00;101664.84;5106861;28;20205;-72
2022/01/13 00:03:32;;;;;;;46.53;25.35;;;;;;;2.41;63.58;101668.22;5106798;28;20046;-74
2022/01/13 00:05:59;;;;;;;61.38;37.22;;;;;;;2.38;63.81;101673.47;5104921;28;20062;-72
2022/01/13 00:08:26;;;;;;;61.83;36.88;;;;;;;2.36;63.85;101674.34;5105166;28;20399;-71
2022/01/13 00:10:53;;;;;;;64.20;36.70;;;;;;;2.39;63.83;101671.72;5104601;28;20054;-71
2022/01/13 00:13:24;;;;;;;54.90;31.95;;;;;;;2.41;63.61;101670.81;5104548;28;20637;-69
2022/01/13 00:16:22;;;;;;;54.53;32.00;;;;;;;2.39;63.64;101674.31;5104792;28;20052;-71
2022/01/13 00:18:49;;;;;;;53.03;32.97;;;;;;;2.41;63.48;101691.69;5104526;28;20671;-71
2022/01/13 00:21:30;;;;;;;52.03;29.55;;;;;;;2.34;63.96;101692.66;5102231;28;20039;-73
2022/01/13 00:24:00;;;;;;;59.20;35.03;;;;;;;2.38;63.76;101678.69;5104334;28;20524;-70
2022/01/13 00:26:29;;;;;;;54.97;31.10;;;;;;;2.36;64.01;101670.03;5105057;28;20047;-74
2022/01/13 00:28:59;;;;;;;49.53;31.63;;;;;;;2.40;63.93;101656.03;5104693;28;20043;-75
2022/01/13 00:31:29;;;;;;;52.92;32.05;;;;;;;2.41;63.89;101633.44;5103758;28;20128;-72
2022/01/13 00:33:59;;;;;;;52.85;28.85;;;;;;;2.41;64.02;101631.72;5105216;28;20050;-73
2022/01/13 00:36:29;;;;;;;56.78;31.73;;;;;;;2.42;63.76;101628.19;5107044;28;20048;-70
2022/01/13 00:38:56;;;;;;;59.03;30.15;;;;;;;2.40;63.97;101643.00;5105694;28;20050;-73
2022/01/13 00:41:26;;;;;;;52.55;33.10;;;;;;;2.44;63.84;101655.09;5105048;28;20572;-72
2022/01/13 00:43:53;;;;;;;58.38;30.60;;;;;;;2.51;63.71;101648.03;5105892;28;20039;-78
2022/01/13 00:46:22;;;;;;;51.95;27.52;;;;;;;2.52;63.75;101657.59;5107968;28;20079;-75
2022/01/13 00:48:51;;;;;;;59.20;39.55;;;;;;;2.49;63.60;101644.59;5105323;28;20054;-71
2022/01/13 00:51:20;;;;;;;55.65;30.05;;;;;;;2.55;63.38;101626.25;5105277;28;20044;-74
2022/01/13 00:53:47;;;;;;;49.42;23.55;;;;;;;2.56;63.46;101588.84;5108442;28;20081;-71
2022/01/13 00:56:14;;;;;;;62.92;31.67;;;;;;;2.70;63.00;101604.22;5105956;28;20046;-72
2022/01/13 00:58:41;;;;;;;56.42;33.53;;;;;;;2.71;62.80;101612.94;5106484;28;20123;-71
2022/01/13 01:01:10;;;;;;;65.10;34.35;;;;;;;2.63;62.83;101603.50;5109716;28;20762;-72
2022/01/13 01:03:38;;;;;;;46.03;24.48;;;;;;;2.77;62.72;101599.78;5106866;28;20123;-77
2022/01/13 01:06:06;;;;;;;57.88;28.40;;;;;;;2.80;62.48;101618.84;5107011;28;20728;-71
2022/01/13 01:08:34;;;;;;;66.03;36.63;;;;;;;2.71;62.83;101632.06;5106939;28;20054;-71
2022/01/13 01:11:03;;;;;;;58.92;30.60;;;;;;;2.66;62.92;101644.31;5105417;28;20052;-72
2022/01/13 01:13:33;;;;;;;67.25;32.60;;;;;;;2.64;63.09;101639.13;5106861;28;20047;-74
2022/01/13 01:16:04;;;;;;;59.50;33.53;;;;;;;2.64;63.09;101652.16;5105877;28;20106;-72
2022/01/13 01:18:37;;;;;;;71.00;34.25;;;;;;;2.60;63.21;101636.59;5106685;28;20096;-74
2022/01/13 01:26:43;;;;;;;54.30;33.75;;;;;;;2.55;63.10;101618.41;5021183;28;20064;-70
2022/01/13 01:29:19;;;;;;;60.03;30.88;;;;;;;2.61;63.06;101613.09;5026056;28;20814;-70
2022/01/13 01:31:49;;;;;;;51.55;31.17;;;;;;;2.56;62.96;101598.44;5027319;28;20085;-71
2022/01/13 01:34:29;;;;;;;54.10;31.80;;;;;;;2.57;62.93;101600.97;5026565;28;20084;-72
2022/01/13 01:36:56;;;;;;;54.35;30.25;;;;;;;2.70;62.62;101595.56;5026449;28;20060;-71
2022/01/13 01:39:25;;;;;;;55.90;25.02;;;;;;;2.71;62.65;101597.28;5026846;28;20084;-73
2022/01/13 01:41:55;;;;;;;53.33;28.45;;;;;;;2.77;62.29;101584.13;5026709;28;20090;-71
2022/01/13 01:44:30;;;;;;;65.03;32.03;;;;;;;2.80;62.41;101581.44;5028043;28;20052;-72
2022/01/13 01:46:58;;;;;;;60.25;29.90;;;;;;;2.71;62.60;101587.69;5027774;28;20096;-72
2022/01/13 01:49:26;;;;;;;40.83;21.08;;;;;;;2.86;62.14;101595.25;5026079;28;20042;-72
2022/01/13 01:51:55;;;;;;;50.35;28.83;;;;;;;2.88;62.10;101600.41;5024888;28;20404;-72
2022/01/13 01:54:23;;;;;;;69.18;32.65;;;;;;;2.78;62.46;101620.63;5026092;28;20049;-73
2022/01/13 01:56:52;;;;;;;56.78;36.53;;;;;;;2.75;62.58;101612.84;5027503;28;20067;-72
2022/01/13 01:59:23;;;;;;;61.38;32.28;;;;;;;2.67;63.03;101620.81;5034613;28;20478;-74
2022/01/13 02:01:52;;;;;;;69.53;36.42;;;;;;;2.68;62.88;101621.66;5110082;27;20052;-70
2022/01/13 02:04:21;;;;;;;63.17;34.63;;;;;;;2.66;63.20;101613.00;5110614;28;20119;-73
2022/01/13 02:06:49;;;;;;;61.38;35.00;;;;;;;2.67;63.14;101593.88;5110842;28;20039;-73
2022/01/13 02:09:19;;;;;;;58.13;32.83;;;;;;;2.68;63.21;101577.31;5110050;28;20127;-73
2022/01/13 02:11:50;;;;;;;61.45;33.30;;;;;;;2.74;62.98;101582.44;5111255;28;20122;-73
2022/01/13 02:14:33;;;;;;;59.83;25.40;;;;;;;2.80;63.09;101571.88;5110833;28;20403;-74
2022/01/13 02:17:05;;;;;;;63.03;32.42;;;;;;;2.83;63.05;101565.75;5110142;28;20091;-70
2022/01/13 02:19:33;;;;;;;62.35;31.30;;;;;;;2.88;62.95;101569.09;5109347;28;20649;-72
2022/01/13 02:22:01;;;;;;;72.68;38.50;;;;;;;2.91;62.91;101573.44;5108046;28;20044;-71
2022/01/13 02:24:28;;;;;;;73.28;40.22;;;;;;;2.88;62.86;101569.09;5109093;28;20685;-71
2022/01/13 02:26:55;;;;;;;72.47;41.25;;;;;;;2.80;63.41;101577.09;5110298;28;20052;-72
2022/01/13 02:29:23;;;;;;;70.65;40.00;;;;;;;2.79;63.30;101578.00;5109187;28;20053;-71
2022/01/13 02:31:50;;;;;;;85.18;49.80;;;;;;;2.70;63.67;101570.31;5109258;28;20054;-70
2022/01/13 02:34:16;;;;;;;65.93;37.63;;;;;;;2.72;63.94;101579.00;5110867;28;20146;-72
2022/01/13 02:36:46;;;;;;;73.32;37.10;;;;;;;2.73;64.05;101578.09;5108272;28;20119;-72
2022/01/13 02:39:14;;;;;;;69.13;31.40;;;;;;;2.81;63.88;101572.72;5108381;28;20050;-70
2022/01/13 02:41:42;;;;;;;56.33;28.52;;;;;;;2.83;63.95;101578.78;5108994;28;20147;-72
2022/01/13 02:44:15;;;;;;;76.90;38.55;;;;;;;2.80;64.01;101571.03;5107855;28;20445;-73
2022/01/13 02:47:08;;;;;;;80.78;41.53;;;;;;;2.72;64.24;101572.91;5108830;28;20630;-70
2022/01/13 02:49:35;;;;;;;73.07;40.85;;;;;;;2.70;64.58;101567.69;5108673;28;20051;-71
2022/01/13 02:52:03;;;;;;;71.97;42.50;;;;;;;2.67;64.74;101563.41;5106399;28;20097;-70
2022/01/13 02:54:32;;;;;;;77.70;44.05;;;;;;;2.66;64.81;101547.78;5110134;28;20044;-69
2022/01/13 02:56:59;;;;;;;64.93;33.28;;;;;;;2.77;64.41;101547.59;5109252;28;20044;-72
2022/01/13 02:59:26;;;;;;;81.60;44.58;;;;;;;2.74;64.61;101540.69;5111451;28;20101;-69
2022/01/13 03:01:53;;;;;;;80.13;35.30;;;;;;;2.75;64.75;101546.75;5110422;28;20087;-72
2022/01/13 03:04:21;;;;;;;66.25;32.50;;;;;;;2.78;64.53;101546.72;5110822;27;20601;-72
2022/01/13 03:06:49;;;;;;;75.78;38.25;;;;;;;2.81;64.57;101547.50;5108376;28;20044;-73
2022/01/13 03:09:16;;;;;;;82.85;38.33;;;;;;;2.85;64.51;101540.47;5110261;28;20157;-73
2022/01/13 03:11:46;;;;;;;79.88;48.40;;;;;;;2.79;64.80;101545.81;5108240;28;20131;-72
2022/01/13 03:14:14;;;;;;;72.82;40.80;;;;;;;2.83;64.71;101550.94;5110788;28;20109;-73
2022/01/13 03:16:43;;;;;;;75.80;44.70;;;;;;;2.79;65.18;101546.69;5108691;28;20043;-71
2022/01/13 03:19:10;;;;;;;86.18;48.53;;;;;;;2.67;65.59;101539.94;5107752;28;20052;-75
2022/01/13 03:21:38;;;;;;;62.33;29.23;;;;;;;2.74;65.46;101539.81;5107481;28;20054;-73
2022/01/13 03:24:08;;;;;;;65.18;30.85;;;;;;;2.83;65.10;101543.13;5108894;28;20047;-72
2022/01/13 03:26:35;;;;;;;59.35;24.95;;;;;;;2.95;64.76;101528.09;5109910;28;20478;-71
2022/01/13 03:29:16;;;;;;;67.18;37.15;;;;;;;2.81;65.12;101520.53;5108803;28;20040;-71
2022/01/13 03:31:44;;;;;;;49.33;22.65;;;;;;;2.84;65.18;101510.91;5108525;28;20124;-72
2022/01/13 03:34:13;;;;;;;63.28;33.35;;;;;;;2.90;64.96;101509.94;5108123;28;20043;-71
2022/01/13 03:36:40;;;;;;;54.53;29.58;;;;;;;2.90;64.67;101509.94;5117985;28;20115;-71
2022/01/13 03:39:08;;;;;;;65.05;38.53;;;;;;;2.86;64.89;101518.69;5107401;28;20119;-70
2022/01/13 03:41:36;;;;;;;44.80;18.70;;;;;;;2.94;64.96;101532.47;5108114;28;20074;-71
2022/01/13 03:44:07;;;;;;;62.72;32.85;;;;;;;2.89;64.86;101538.66;5107347;28;20484;-73
2022/01/13 03:46:36;;;;;;;58.17;23.55;;;;;;;2.90;65.08;101524.72;5108565;28;20051;-71
2022/01/13 03:49:07;;;;;;;63.33;33.78;;;;;;;2.93;64.75;101524.66;5108353;28;20046;-73
2022/01/13 03:52:50;;;;;;;53.65;20.88;;;;;;;3.06;64.76;101526.13;5106968;28;20075;-74
2022/01/13 03:55:53;;;;;;;49.40;25.15;;;;;;;3.06;64.55;101527.00;5108663;28;20447;-76
2022/01/13 03:58:59;;;;;;;64.53;37.03;;;;;;;3.05;64.56;101519.19;5111326;28;20056;-73
2022/01/13 04:02:00;;;;;;;59.40;32.20;;;;;;;2.94;64.86;101523.78;5110447;28;20100;-75
2022/01/13 04:04:28;;;;;;;65.53;35.90;;;;;;;2.88;65.09;101511.69;5109427;28;20040;-74
2022/01/13 04:07:10;;;;;;;56.03;32.65;;;;;;;2.91;65.17;101503.81;5109007;28;20131;-74
2022/01/13 04:10:26;;;;;;;41.15;19.48;;;;;;;3.04;64.92;101509.63;5108868;28;20107;-75
2022/01/13 04:12:53;;;;;;;47.58;22.65;;;;;;;3.08;64.42;101506.09;5115078;28;20043;-75
2022/01/13 04:15:23;;;;;;;29.67;12.50;;;;;;;3.07;64.44;101506.97;5111556;28;20138;-77
2022/01/13 04:17:52;;;;;;;46.60;24.88;;;;;;;2.95;64.87;101500.25;5109586;28;20134;-74
2022/01/13 04:20:20;;;;;;;33.78;15.55;;;;;;;2.97;64.79;101485.44;5108818;28;20389;-74
2022/01/13 04:22:48;;;;;;;50.05;24.02;;;;;;;3.07;64.38;101475.66;5107176;28;20130;-74
2022/01/13 04:25:21;;;;;;;47.17;19.08;;;;;;;3.17;64.19;101471.06;5108101;28;20751;-74
2022/01/13 04:27:48;;;;;;;40.22;15.70;;;;;;;3.22;64.05;101472.72;5109895;28;20108;-77
2022/01/13 04:33:07;;;;;;;61.33;32.30;;;;;;;3.30;63.78;101445.56;5085261;28;20131;-73
2022/01/13 04:35:34;;;;;;;36.08;16.02;;;;;;;3.29;63.82;101443.84;5085322;28;20557;-75
2022/01/13 04:38:01;;;;;;;44.67;17.40;;;;;;;3.26;63.74;101429.13;5084469;28;20567;-74
2022/01/13 04:40:29;;;;;;;50.45;19.80;;;;;;;3.22;63.98;101433.53;5084123;28;20063;-74
2022/01/13 04:42:56;;;;;;;50.70;25.10;;;;;;;3.23;64.08;101434.41;5083115;28;20089;-74
2022/01/13 04:45:25;;;;;;;63.55;32.22;;;;;;;3.23;63.97;101429.16;5083714;28;20056;-75
2022/01/13 04:47:54;;;;;;;56.17;28.10;;;;;;;3.20;64.17;101434.47;5083136;28;20048;-73
2022/01/13 04:50:25;;;;;;;41.88;19.80;;;;;;;3.21;64.21;101442.25;5083205;28;20087;-75
2022/01/13 04:52:52;;;;;;;66.30;30.95;;;;;;;3.14;64.33;101434.63;5081625;28;20123;-73
2022/01/13 04:55:24;;;;;;;51.35;20.08;;;;;;;3.16;64.31;101436.28;5083567;28;20091;-75
2022/01/13 04:57:53;;;;;;;43.03;18.42;;;;;;;3.14;64.53;101445.06;5083617;28;20605;-71
2022/01/13 05:00:21;;;;;;;52.15;24.05;;;;;;;3.13;64.53;101441.56;5083831;28;20040;-75
2022/01/13 05:02:48;;;;;;;30.13;16.75;;;;;;;3.16;64.29;101441.50;5082528;28;20044;-75
2022/01/13 05:05:15;;;;;;;39.75;21.77;;;;;;;3.15;64.77;101452.84;5083778;28;20767;-74
2022/01/13 05:07:43;;;;;;;46.33;22.92;;;;;;;3.18;64.60;101442.31;5085020;28;20186;-76
2022/01/13 05:10:11;;;;;;;40.17;19.00;;;;;;;3.16;64.78;101438.03;5099347;28;20415;-71
2022/01/13 05:12:42;;;;;;;34.20;13.68;;;;;;;3.23;64.67;101429.16;5106812;28;20134;-77
2022/01/13 05:15:14;;;;;;;40.90;19.67;;;;;;;3.23;64.58;101422.19;5107555;28;20480;-75
2022/01/13 05:20:37;;;;;;;43.67;21.40;;;;;;;3.17;64.85;101419.72;5025809;28;20050;-76
2022/01/13 05:23:08;;;;;;;44.72;22.27;;;;;;;3.16;64.95;101406.72;5025252;28;20126;-74
2022/01/13 05:25:35;;;;;;;35.65;17.17;;;;;;;3.18;64.92;101421.44;5025866;28;20434;-75
2022/01/13 05:28:03;;;;;;;41.97;18.45;;;;;;;3.20;64.81;101414.41;5022971;28;20057;-73
2022/01/13 05:30:30;;;;;;;39.90;16.10;;;;;;;3.19;65.06;101424.94;5023670;28;20050;-72
2022/01/13 05:32:57;;;;;;;37.05;19.00;;;;;;;3.20;64.88;101424.88;5023759;28;20041;-73
2022/01/13 05:35:27;;;;;;;29.48;14.45;;;;;;;3.21;65.33;101425.75;5025117;28;20789;-78
2022/01/13 05:37:54;;;;;;;36.70;16.92;;;;;;;3.22;65.27;101433.53;5029382;28;20048;-76
2022/01/13 05:40:38;;;;;;;27.45;13.48;;;;;;;3.27;65.32;101424.75;5043393;28;20069;-77
2022/01/13 05:43:05;;;;;;;29.00;14.90;;;;;;;3.30;64.88;101432.50;5027062;28;20052;-74
2022/01/13 05:45:33;;;;;;;39.95;23.23;;;;;;;3.20;65.52;101437.91;5030349;28;20132;-75
2022/01/13 05:48:02;;;;;;;28.60;13.70;;;;;;;3.29;65.52;101441.22;5025705;28;20053;-74
2022/01/13 05:50:32;;;;;;;21.60;10.90;;;;;;;3.36;65.21;101411.47;5026680;28;20145;-71
2022/01/13 05:53:01;;;;;;;27.38;12.75;;;;;;;3.36;65.17;101398.41;5022916;28;20245;-72
2022/01/13 05:55:29;;;;;;;30.73;16.83;;;;;;;3.37;65.27;101389.69;5026662;28;20049;-75
2022/01/13 05:57:57;;;;;;;34.28;17.38;;;;;;;3.35;65.14;101389.72;5081702;28;20107;-72
2022/01/13 06:00:25;;;;;;;32.10;14.48;;;;;;;3.35;65.34;101388.84;5106394;28;20130;-73
2022/01/13 06:02:52;;;;;;;42.95;21.95;;;;;;;3.38;65.33;101396.59;5105893;28;20053;-77
2022/01/13 06:05:21;;;;;;;35.58;17.08;;;;;;;3.36;65.61;101390.56;5108343;28;20649;-74
2022/01/13 06:07:48;;;;;;;40.30;21.90;;;;;;;3.38;65.33;101375.72;5106295;28;20093;-73
2022/01/13 06:10:19;;;;;;;39.08;20.42;;;;;;;3.42;65.45;101373.00;5105942;28;20131;-76
2022/01/13 06:12:47;;;;;;;36.90;16.38;;;;;;;3.45;65.38;101377.28;5108107;28;20127;-80
2022/01/13 06:15:19;;;;;;;30.10;15.20;;;;;;;3.50;65.50;101364.97;5110546;28;20083;-77
2022/01/13 06:17:48;;;;;;;27.60;14.70;;;;;;;3.52;65.20;101357.94;5110459;28;20055;-78
2022/01/13 06:20:16;;;;;;;28.77;15.18;;;;;;;3.54;65.35;101369.22;5112516;27;20203;-76
2022/01/13 06:22:45;;;;;;;30.95;16.70;;;;;;;3.54;65.38;101379.66;5110679;28;20130;-77
2022/01/13 06:25:13;;;;;;;24.27;11.45;;;;;;;3.59;65.41;101372.56;5114037;27;20082;-78
2022/01/13 06:27:41;;;;;;;33.53;18.40;;;;;;;3.60;65.49;101382.13;5114600;28;20039;-75
2022/01/13 06:30:13;;;;;;;27.88;13.77;;;;;;;3.62;65.21;101369.88;5122960;28;20063;-79
2022/01/13 06:32:42;;;;;;;26.67;15.95;;;;;;;3.64;65.31;101360.25;5111158;28;20055;-75
2022/01/13 06:35:10;;;;;;;31.60;16.10;;;;;;;3.62;65.57;101371.66;5110580;28;20044;-75
2022/01/13 06:37:38;;;;;;;29.55;14.88;;;;;;;3.68;65.30;101362.78;5110021;28;20126;-78
2022/01/13 06:40:06;;;;;;;27.90;13.88;;;;;;;3.69;65.26;101360.16;5073287;28;20130;-77
2022/01/13 06:42:34;;;;;;;32.00;16.60;;;;;;;3.72;65.10;101354.81;5111241;28;20126;-76
2022/01/13 06:45:02;;;;;;;27.95;14.65;;;;;;;3.73;65.27;101330.41;5110842;28;20400;-77
2022/01/13 06:47:30;;;;;;;32.75;18.88;;;;;;;3.75;65.30;101327.75;5109991;28;20130;-76
2022/01/13 06:49:59;;;;;;;26.80;14.50;;;;;;;3.79;65.08;101316.31;5108500;27;20047;-75
2022/01/13 06:52:26;;;;;;;38.30;22.42;;;;;;;3.78;65.14;101291.97;5108341;28;20635;-80
2022/01/13 06:54:55;;;;;;;34.08;17.58;;;;;;;3.80;65.04;101284.94;5109131;28;20047;-75
2022/01/13 06:57:22;;;;;;;30.45;17.20;;;;;;;3.80;65.20;101282.31;5109080;28;20087;-76
2022/01/13 06:59:49;;;;;;;26.00;12.13;;;;;;;3.83;65.04;101263.94;5108510;28;20043;-74
2022/01/13 07:02:16;;;;;;;32.95;16.02;;;;;;;3.81;65.04;101263.09;5116632;28;20107;-79
2022/01/13 07:04:44;;;;;;;29.17;16.23;;;;;;;3.85;65.30;101266.47;5122467;28;20071;-79
2022/01/13 07:07:13;;;;;;;34.97;22.60;;;;;;;3.88;65.20;101266.41;5115365;28;20099;-79
2022/01/13 07:09:40;;;;;;;28.73;15.57;;;;;;;3.91;65.27;101275.94;5112540;28;20646;-80
2022/01/13 07:12:10;;;;;;;33.33;16.40;;;;;;;3.93;65.02;101280.22;5115200;28;20051;-82
2022/01/13 07:14:39;;;;;;;30.77;16.20;;;;;;;3.97;65.12;101289.66;5113373;28;20139;-81
2022/01/13 07:17:06;;;;;;;28.90;16.85;;;;;;;3.93;65.38;101303.72;5112135;28;20043;-79
2022/01/13 07:19:33;;;;;;;26.88;15.18;;;;;;;4.00;65.32;101315.72;5112524;28;20143;-79
2022/01/13 07:22:09;;;;;;;24.08;12.63;;;;;;;4.06;65.08;101326.91;5117005;28;20077;-83
2022/01/13 07:24:40;;;;;;;23.73;13.30;;;;;;;4.10;65.09;101329.38;5122167;28;20040;-79
2022/01/13 07:27:07;;;;;;;32.92;22.00;;;;;;;3.97;65.51;101326.25;5111392;28;20493;-83
2022/01/13 07:29:35;;;;;;;30.00;18.10;;;;;;;4.05;65.25;101314.72;5113850;28;20119;-80
2022/01/13 07:32:02;;;;;;;37.58;22.15;;;;;;;4.07;65.45;101302.47;5114930;28;20051;-79
2022/01/13 07:34:30;;;;;;;31.08;16.60;;;;;;;4.10;65.38;101298.00;5112794;28;20115;-82
2022/01/13 07:36:57;;;;;;;26.80;13.15;;;;;;;4.16;65.05;101295.25;5114019;28;20047;-80
2022/01/13 07:39:25;;;;;;;29.33;13.88;;;;;;;4.21;65.01;101289.84;5113941;28;20134;-81
2022/01/13 07:41:56;;;;;;;27.75;14.45;;;;;;;4.28;64.89;101283.53;5116425;28;20520;-81
2022/01/13 07:44:24;;;;;;;27.27;16.08;;;;;;;4.31;64.78;101285.22;5116841;28;20055;-82
2022/01/13 07:46:51;;;;;;;50.72;26.88;;;;;;;4.33;64.73;101297.34;5111791;28;20054;-80
2022/01/13 07:49:19;;;;;;;38.25;24.95;;;;;;;4.37;64.57;101287.66;5075295;28;20557;-84
2022/01/13 07:51:46;;;;;;;39.20;29.90;;;;;;;4.36;64.57;101284.19;5108799;28;20067;-78
2022/01/13 07:54:13;;;;;;;43.50;32.05;;;;;;;4.31;64.73;101280.84;5111414;28;20173;-81
2022/01/13 07:56:40;;;;;;;35.38;18.92;;;;;;;4.38;64.62;101295.44;5110443;28;20079;-79
2022/01/13 07:59:10;;;;;;;31.65;24.85;;;;;;;4.33;64.73;101294.72;5111773;28;20522;-83
2022/01/13 08:01:37;;;;;;;24.52;18.08;;;;;;;4.38;64.53;101295.44;5109336;28;20039;-79
2022/01/13 08:04:04;;;;;;;36.65;24.52;;;;;;;4.32;64.88;101305.22;5111051;28;20082;-81
2022/01/13 08:06:34;;;;;;;34.00;19.58;;;;;;;4.31;64.98;101293.91;5109527;28;20170;-83
2022/01/13 08:09:01;;;;;;;24.13;14.80;;;;;;;4.39;64.76;101293.69;5116481;28;20425;-78
2022/01/13 08:11:28;;;;;;;36.50;24.48;;;;;;;4.36;64.87;101299.03;5109063;28;20075;-77
2022/01/13 08:13:55;;;;;;;30.08;17.02;;;;;;;4.44;64.60;101312.72;5106951;28;20639;-80
2022/01/13 08:16:32;;;;;;;35.90;23.15;;;;;;;4.34;64.96;101304.31;5105679;28;20098;-80
2022/01/13 08:21:44;;;;;;;43.10;31.52;;;;;;;4.29;65.08;101293.13;5106055;28;20160;-77
2022/01/13 08:24:13;;;;;;;37.05;21.42;;;;;;;4.25;65.60;101293.25;5106816;28;20638;-79
2022/01/13 08:26:41;;;;;;;42.38;26.05;;;;;;;4.28;65.41;101307.06;5107299;28;20047;-77
2022/01/13 08:29:09;;;;;;;31.70;15.02;;;;;;;4.32;65.58;101313.97;5110325;28;20502;-79
2022/01/13 08:31:38;;;;;;;27.85;14.32;;;;;;;4.45;65.25;101311.81;5112402;28;20048;-82
2022/01/13 08:34:06;;;;;;;40.10;30.15;;;;;;;4.44;65.24;101307.47;5108307;28;20047;-76
2022/01/13 08:36:33;;;;;;;32.92;20.60;;;;;;;4.51;65.11;101311.63;5106041;28;20055;-77
2022/01/13 08:39:02;;;;;;;38.28;22.77;;;;;;;4.57;64.90;101315.81;5107908;28;20044;-81
2022/01/13 08:41:29;;;;;;;40.15;19.70;;;;;;;4.64;64.91;101319.97;5109919;28;20051;-79
2022/01/13 08:43:57;;;;;;;34.60;19.60;;;;;;;4.69;64.87;101312.81;5108414;28;20085;-82
2022/01/13 08:46:40;;;;;;;46.42;26.05;;;;;;;4.69;64.84;101304.97;5110299;28;20079;-82
2022/01/13 08:49:09;;;;;;;29.73;15.93;;;;;;;4.76;64.59;101293.41;5108644;28;20069;-78
2022/01/13 08:51:36;;;;;;;26.42;15.13;;;;;;;4.84;64.40;101294.94;5111980;28;20047;-82
2022/01/13 08:54:05;;;;;;;56.90;34.70;;;;;;;4.78;64.53;101286.38;5110884;28;20059;-84
2022/01/13 08:56:32;;;;;;;34.90;18.70;;;;;;;4.76;64.71;101309.13;5112433;28;20058;-84
2022/01/13 08:59:00;;;;;;;45.50;23.95;;;;;;;4.81;64.28;101301.13;5113691;28;20059;-83
2022/01/13 09:01:29;;;;;;;42.28;25.65;;;;;;;4.85;64.60;101287.03;5113386;28;20081;-79
2022/01/13 09:03:59;;;;;;;41.22;19.85;;;;;;;4.93;64.53;101292.00;5115911;28;20269;-82
2022/01/13 09:06:26;;;;;;;36.83;19.58;;;;;;;4.94;64.16;101291.13;5126439;28;20074;-82
2022/01/13 09:08:54;;;;;;;37.05;18.30;;;;;;;5.02;64.10;101289.09;5125607;28;20032;-82
2022/01/13 09:11:21;;;;;;;46.83;27.42;;;;;;;5.03;63.99;101280.34;5125960;28;20247;-82
2022/01/13 09:13:55;;;;;;;38.50;19.35;;;;;;;5.07;63.93;101281.94;5127996;28;20035;-76
2022/01/13 09:16:24;;;;;;;52.67;28.02;;;;;;;4.99;64.39;101281.34;5129222;28;20027;-77
2022/01/13 09:19:09;;;;;;;48.95;25.55;;;;;;;5.00;64.34;101274.34;5131704;28;20043;-80
2022/01/13 09:24:22;;;;;;;58.13;32.15;;;;;;;5.03;64.26;101280.34;5095186;28;20499;-81
2022/01/13 09:26:50;;;;;;;38.40;19.38;;;;;;;5.01;64.35;101276.91;5115107;28;20052;-76
2022/01/13 09:29:17;;;;;;;27.80;13.90;;;;;;;5.05;64.13;101288.16;5110676;28;20070;-74
2022/01/13 09:31:45;;;;;;;41.50;20.05;;;;;;;5.06;64.35;101282.00;5118677;28;20290;-79
2022/01/13 09:34:13;;;;;;;47.78;24.95;;;;;;;5.11;64.35;101272.22;5116172;28;20044;-75
2022/01/13 09:36:43;;;;;;;69.93;43.15;;;;;;;4.95;65.10;101269.25;5119967;28;20470;-80
2022/01/13 09:39:11;;;;;;;62.35;31.95;;;;;;;4.84;65.55;101261.75;5112297;28;20103;-80
2022/01/13 09:41:43;;;;;;;58.55;28.77;;;;;;;4.85;65.67;101265.25;5110564;28;20044;-75
2022/01/13 09:44:13;;;;;;;74.90;42.75;;;;;;;4.90;65.32;101263.34;5110019;28;20297;-75
2022/01/13 09:46:42;;;;;;;56.78;26.88;;;;;;;4.93;65.35;101263.22;5111111;28;20108;-80
2022/01/13 09:49:10;;;;;;;72.47;36.83;;;;;;;4.86;65.59;101256.47;5115352;28;20119;-78
2022/01/13 09:51:44;;;;;;;52.92;24.63;;;;;;;4.99;65.34;101252.56;5117322;28;20154;-75
2022/01/13 09:54:16;;;;;;;85.15;49.97;;;;;;;4.89;65.90;101245.91;5114683;28;20050;-77
2022/01/13 09:56:43;;;;;;;85.25;46.30;;;;;;;4.78;66.29;101257.56;5116516;28;20136;-76
2022/01/13 09:59:10;;;;;;;62.17;28.17;;;;;;;4.83;66.14;101231.25;5112764;28;20138;-76
2022/01/13 10:01:38;;;;;;;80.75;46.50;;;;;;;4.82;66.24;101237.38;5110970;28;20043;-74
2022/01/13 10:04:05;;;;;;;75.28;33.53;;;;;;;4.84;66.43;101237.34;5115352;28;20067;-78
2022/01/13 10:06:47;;;;;;;69.97;36.58;;;;;;;4.87;66.44;101224.16;5112414;28;20050;-78
2022/01/13 10:09:17;;;;;;;63.45;23.00;;;;;;;4.93;66.40;101237.03;5112714;28;20059;-76
2022/01/13 10:11:53;;;;;;;66.72;29.08;;;;;;;5.02;66.27;101241.97;5111981;28;20665;-77
2022/01/13 10:17:18;;;;;;;80.22;42.30;;;;;;;5.08;66.16;101217.34;5111040;28;20059;-76
2022/01/13 10:19:49;;;;;;;81.38;40.20;;;;;;;4.98;66.51;101224.66;5108827;28;20179;-78
2022/01/13 10:22:19;;;;;;;69.03;30.60;;;;;;;5.01;66.29;101214.09;5125557;28;20059;-75
2022/01/13 10:24:55;;;;;;;68.20;31.40;;;;;;;5.11;66.18;101212.00;5117003;27;20056;-78
2022/01/13 10:27:28;;;;;;;58.55;28.20;;;;;;;5.15;66.10;101211.00;5121734;28;20063;-78
2022/01/13 10:29:58;;;;;;;48.10;21.00;;;;;;;5.24;65.73;101200.19;5118503;28;20226;-82
2022/01/13 10:32:33;;;;;;;53.22;22.52;;;;;;;5.32;65.62;101203.38;5119562;28;20511;-81
2022/01/13 10:35:05;;;;;;;54.33;24.00;;;;;;;5.30;65.68;101199.13;5118851;28;20108;-84
2022/01/13 10:37:36;;;;;;;60.60;27.60;;;;;;;5.32;65.67;101205.16;5115738;28;20052;-78
2022/01/13 10:40:12;;;;;;;55.13;28.70;;;;;;;5.41;65.47;101196.97;5115424;28;20598;-81
2022/01/13 10:43:10;;;;;;;60.35;27.75;;;;;;;5.41;65.57;101183.88;5116751;28;20103;-83
2022/01/13 10:45:47;;;;;;;60.45;30.65;;;;;;;5.55;65.17;101199.94;5128532;28;20063;-85
2022/01/13 10:48:22;;;;;;;69.82;32.17;;;;;;;5.44;65.36;101193.38;5129332;28;20104;-78
2022/01/13 10:50:52;;;;;;;75.50;32.30;;;;;;;5.47;65.58;101185.41;5132343;28;20054;-78
2022/01/13 10:53:23;;;;;;;57.60;27.90;;;;;;;5.48;65.61;101180.13;5121036;28;20103;-83
2022/01/13 10:55:55;;;;;;;51.65;22.85;;;;;;;5.50;65.57;101173.06;5121002;28;20585;-81
2022/01/13 10:58:25;;;;;;;66.32;27.45;;;;;;;5.53;65.61;101175.56;5124546;28;20067;-82
2022/01/13 11:00:54;;;;;;;55.90;24.67;;;;;;;5.57;65.45;101178.94;5123323;27;20055;-77
2022/01/13 11:03:23;;;;;;;68.32;27.75;;;;;;;5.47;65.79;101167.91;5121503;28;20048;-79
2022/01/13 11:05:52;;;;;;;67.88;22.98;;;;;;;5.47;66.05;101188.03;5123843;28;20131;-76
2022/01/13 11:08:31;;;;;;;75.10;40.65;;;;;;;5.45;66.00;101177.59;5137522;28;20043;-78
2022/01/13 11:11:02;;;;;;;67.68;34.10;;;;;;;5.38;66.37;101183.13;5115101;28;20087;-83
2022/01/13 11:13:36;;;;;;;68.82;31.08;;;;;;;5.31;66.59;101179.88;5116395;28;20073;-81
2022/01/13 11:16:04;;;;;;;70.55;30.60;;;;;;;5.38;66.44;101175.28;5114794;28;20570;-83
2022/01/13 11:18:33;;;;;;;56.92;24.75;;;;;;;5.46;66.55;101163.59;5119532;28;20043;-81
2022/01/13 11:21:02;;;;;;;56.25;24.38;;;;;;;5.50;66.28;101157.34;5118787;28;20075;-79
2022/01/13 11:23:30;;;;;;;60.55;24.80;;;;;;;5.52;66.13;101147.66;5117866;28;20049;-81
2022/01/13 11:25:58;;;;;;;45.45;20.73;;;;;;;5.50;66.18;101146.00;5117038;28;20184;-80
2022/01/13 11:28:27;;;;;;;74.82;34.90;;;;;;;5.47;66.20;101143.50;5117061;28;20410;-83
2022/01/13 11:30:54;;;;;;;73.90;33.70;;;;;;;5.42;66.34;101137.56;5116800;28;20047;-84
2022/01/13 11:33:24;;;;;;;53.55;18.95;;;;;;;5.46;66.36;101137.41;5117502;28;20455;-78
2022/01/13 11:35:55;;;;;;;65.95;27.95;;;;;;;5.44;66.52;101139.22;5107481;28;20050;-78
2022/01/13 11:38:24;;;;;;;87.78;40.17;;;;;;;5.33;66.82;101130.88;5114164;28;20403;-79
2022/01/13 11:40:55;;;;;;;54.15;23.85;;;;;;;5.41;66.65;101131.47;5112500;28;20063;-80
2022/01/13 11:43:37;;;;;;;64.18;27.13;;;;;;;5.45;66.59;101119.13;5107982;28;20131;-77
2022/01/13 11:46:16;;;;;;;54.67;25.45;;;;;;;5.36;66.85;101110.66;5109975;28;20040;-75
2022/01/13 11:49:04;;;;;;;92.32;36.20;;;;;;;5.35;67.03;101114.22;5113922;28;20090;-81
2022/01/13 11:51:56;;;;;;;70.63;32.58;;;;;;;5.34;67.00;101122.13;5114057;28;20074;-82